Time;durP1;ratioP1;P1;durP2;ratioP2;P2;SDS_P1;SDS_P2;PMS_P1;PMS_P2;Temp;Humidity;BMP_temperature;BMP_pressure;BME280_temperature;BME280_humidity;BME280_pressure;Samples;Min_cycle;Max_cycle;Signal;HPM_P1;HPM_P2
2022/07/30 00:05:48;;;;;;;3.55;1.35;;;27.20;56.20;;;;;;10872706;32;20032;-72
2022/07/30 00:11:50;;;;;;;4.07;1.75;;;27.30;56.20;;;;;;10872499;32;20042;-72
2022/07/30 00:17:52;;;;;;;2.62;0.95;;;27.30;57.10;;;;;;10872173;32;20054;-72
2022/07/30 00:23:54;;;;;;;1.23;0.90;;;27.30;57.40;;;;;;10871925;32;20085;-72
2022/07/30 00:29:56;;;;;;;2.75;1.37;;;27.50;57.20;;;;;;10866512;32;20024;-72
2022/07/30 00:35:58;;;;;;;1.55;1.15;;;27.60;57.50;;;;;;10858554;32;20327;-72
2022/07/30 00:42:02;;;;;;;3.22;1.37;;;27.50;57.90;;;;;;10871549;32;20046;-72
2022/07/30 00:48:11;;;;;;;1.65;1.27;;;27.40;57.90;;;;;;10871191;32;20055;-72
2022/07/30 00:54:14;;;;;;;2.47;1.23;;;27.40;58.00;;;;;;10871042;32;20368;-72
2022/07/30 01:00:17;;;;;;;3.47;1.98;;;27.40;58.10;;;;;;10870593;32;20054;-72
2022/07/30 01:06:19;;;;;;;4.30;1.37;;;27.30;58.10;;;;;;10870634;32;20028;-72
2022/07/30 01:12:24;;;;;;;2.65;1.00;;;27.30;58.50;;;;;;10870419;32;20023;-72
2022/07/30 01:19:47;;;;;;;2.12;1.00;;;27.10;58.50;;;;;;10870060;32;20070;-72
2022/07/30 01:25:03;;;;;;;1.55;1.27;;;26.90;58.50;;;;;;10870096;32;20027;-72
2022/07/30 01:31:06;;;;;;;1.70;1.17;;;26.80;58.60;;;;;;10870072;32;20439;-72
2022/07/30 01:37:10;;;;;;;3.75;2.10;;;26.70;58.60;;;;;;10869631;32;20413;-72
2022/07/30 01:43:13;;;;;;;1.67;1.15;;;26.60;58.60;;;;;;10868916;32;20400;-72
2022/07/30 01:49:17;;;;;;;2.08;1.52;;;26.60;58.50;;;;;;10869221;32;20055;-72
2022/07/30 01:55:27;;;;;;;3.08;1.80;;;26.70;58.70;;;;;;10868811;32;20051;-72
2022/07/30 02:01:51;;;;;;;2.97;1.90;;;26.80;58.80;;;;;;10868646;32;20046;-72
2022/07/30 02:08:07;;;;;;;2.28;1.25;;;26.60;59.10;;;;;;10868582;32;20023;-72
2022/07/30 02:14:27;;;;;;;2.55;1.80;;;26.40;59.10;;;;;;10868242;32;20061;-72
2022/07/30 02:20:59;;;;;;;3.50;1.95;;;26.30;59.20;;;;;;10868073;32;20020;-72
2022/07/30 02:27:08;;;;;;;1.65;1.25;;;26.10;59.40;;;;;;10867858;32;20027;-72
2022/07/30 02:33:13;;;;;;;2.65;1.95;;;26.10;59.40;;;;;;10867668;32;20024;-72
2022/07/30 02:39:16;;;;;;;6.82;2.08;;;26.00;59.40;;;;;;10867472;32;20089;-72
2022/07/30 02:45:20;;;;;;;2.05;1.67;;;26.00;59.50;;;;;;10867488;32;20054;-73
2022/07/30 02:51:24;;;;;;;2.92;1.77;;;26.10;59.40;;;;;;10866815;32;20328;-72
2022/07/30 02:57:27;;;;;;;3.15;1.77;;;26.30;59.30;;;;;;10867272;32;20042;-72
2022/07/30 03:03:30;;;;;;;3.33;1.75;;;26.20;59.30;;;;;;10867079;32;20019;-72
2022/07/30 03:09:41;;;;;;;2.12;1.65;;;26.20;59.30;;;;;;10866808;32;20039;-72
2022/07/30 03:15:48;;;;;;;4.55;2.58;;;26.10;59.40;;;;;;10866815;32;20019;-72
2022/07/30 03:21:52;;;;;;;3.58;2.40;;;26.00;59.70;;;;;;10866080;32;20028;-72
2022/07/30 03:27:58;;;;;;;5.50;2.45;;;26.00;59.50;;;;;;10866581;32;20133;-72
2022/07/30 03:34:01;;;;;;;3.50;2.10;;;25.90;59.50;;;;;;10866502;32;20047;-73
2022/07/30 03:40:04;;;;;;;5.00;2.33;;;25.90;59.60;;;;;;10862139;32;20024;-72
2022/07/30 03:46:09;;;;;;;5.80;2.15;;;25.80;60.00;;;;;;10862055;32;20028;-72
2022/07/30 03:52:13;;;;;;;5.25;2.00;;;25.90;60.00;;;;;;10866003;32;20297;-72
2022/07/30 03:58:15;;;;;;;4.50;3.45;;;26.10;60.10;;;;;;10865577;32;20064;-72
2022/07/30 04:04:18;;;;;;;2.08;1.48;;;26.20;60.00;;;;;;10868325;32;20036;-72
2022/07/30 04:10:20;;;;;;;5.70;3.25;;;26.20;60.00;;;;;;10872655;32;20400;-72
2022/07/30 04:16:30;;;;;;;5.72;2.03;;;26.20;60.20;;;;;;10872642;32;20351;-72
2022/07/30 04:22:35;;;;;;;6.95;3.17;;;25.90;60.20;;;;;;10872326;32;20062;-72
2022/07/30 04:28:38;;;;;;;2.85;2.08;;;25.70;60.50;;;;;;10886951;27;20047;-72
2022/07/30 04:34:52;;;;;;;4.65;2.62;;;25.60;60.60;;;;;;10909170;32;20023;-72
2022/07/30 04:40:55;;;;;;;6.85;2.45;;;25.60;60.50;;;;;;10908830;32;20046;-72
2022/07/30 04:46:57;;;;;;;3.83;2.53;;;25.80;60.80;;;;;;10908620;32;20076;-72
2022/07/30 04:53:01;;;;;;;6.18;3.05;;;25.90;60.20;;;;;;10891684;32;20027;-72
2022/07/30 04:59:10;;;;;;;5.80;3.20;;;26.00;60.10;;;;;;10909628;32;20020;-72
2022/07/30 05:05:14;;;;;;;9.55;5.65;;;25.90;60.10;;;;;;10886075;32;20027;-72
2022/07/30 05:11:18;;;;;;;4.70;3.22;;;25.90;60.30;;;;;;10869865;32;20012;-72
2022/07/30 05:17:51;;;;;;;6.75;3.65;;;25.80;60.40;;;;;;10869811;32;20024;-72
2022/07/30 05:23:53;;;;;;;11.35;8.55;;;25.60;60.90;;;;;;10719897;33;20052;-71
2022/07/30 05:29:56;;;;;;;6.30;4.68;;;25.40;62.10;;;;;;10718973;33;20024;-73
2022/07/30 05:36:20;;;;;;;6.35;3.90;;;25.30;62.40;;;;;;10715961;33;20044;-73
2022/07/30 05:42:38;;;;;;;4.32;2.47;;;25.30;62.50;;;;;;10719553;33;20156;-73
2022/07/30 05:49:14;;;;;;;6.43;4.28;;;25.50;61.80;;;;;;10717475;33;20064;-73
2022/07/30 05:55:17;;;;;;;3.67;2.28;;;25.50;61.60;;;;;;10719151;33;20025;-72
2022/07/30 06:01:21;;;;;;;3.05;2.33;;;25.70;61.40;;;;;;10853354;32;20046;-72
2022/07/30 06:07:24;;;;;;;5.82;2.97;;;26.00;60.90;;;;;;10868661;32;20019;-73
2022/07/30 06:13:27;;;;;;;4.57;2.05;;;26.10;60.50;;;;;;10868477;32;20054;-73
2022/07/30 06:19:30;;;;;;;3.72;2.40;;;26.30;60.40;;;;;;10866892;32;20046;-72
2022/07/30 06:25:38;;;;;;;4.70;2.40;;;26.40;60.10;;;;;;10867285;32;20050;-72
2022/07/30 06:31:40;;;;;;;;;;;26.50;59.90;;;;;;10867808;32;20372;-72
2022/07/30 06:38:05;;;;;;;3.03;1.95;;;26.70;59.60;;;;;;10867149;32;19946;-72
2022/07/30 06:44:09;;;;;;;2.90;1.75;;;26.80;59.40;;;;;;10867960;32;20035;-72
2022/07/30 06:50:14;;;;;;;4.25;2.50;;;26.80;59.20;;;;;;10867253;32;20065;-72
2022/07/30 06:56:46;;;;;;;5.37;2.95;;;26.90;59.10;;;;;;10867260;32;20320;-72
2022/07/30 07:02:48;;;;;;;1.83;1.12;;;27.00;59.10;;;;;;10867146;32;20031;-72
2022/07/30 07:09:02;;;;;;;2.55;1.58;;;26.90;59.10;;;;;;10866896;32;20031;-73
2022/07/30 07:15:31;;;;;;;2.70;1.55;;;26.90;59.10;;;;;;10866797;32;20194;-73
2022/07/30 07:21:33;;;;;;;4.35;2.72;;;27.00;58.90;;;;;;10866342;32;20020;-73
2022/07/30 07:27:38;;;;;;;3.85;2.40;;;27.30;58.80;;;;;;10866657;32;20446;-73
2022/07/30 07:33:56;;;;;;;5.25;3.65;;;27.30;58.70;;;;;;10866509;32;20024;-73
2022/07/30 07:39:58;;;;;;;3.97;2.50;;;27.50;58.60;;;;;;10865953;32;20196;-73
2022/07/30 07:46:04;;;;;;;4.97;3.15;;;27.60;58.50;;;;;;10870223;32;20046;-74
2022/07/30 07:52:07;;;;;;;1.15;0.82;;;27.60;58.30;;;;;;10873308;32;20389;-73
2022/07/30 07:58:12;;;;;;;3.20;1.50;;;27.60;58.20;;;;;;10873143;32;20023;-74
2022/07/30 08:04:14;;;;;;;7.22;2.62;;;27.70;58.20;;;;;;10868630;32;20074;-73
2022/07/30 08:10:18;;;;;;;4.25;2.87;;;27.70;58.30;;;;;;10872708;32;20019;-72
2022/07/30 08:16:21;;;;;;;3.58;2.33;;;27.80;58.20;;;;;;10872579;32;20019;-72
2022/07/30 08:22:25;;;;;;;6.45;1.77;;;27.90;58.20;;;;;;10871400;32;20046;-72
2022/07/30 08:28:28;;;;;;;2.65;1.77;;;27.90;57.90;;;;;;10871313;32;20074;-72
2022/07/30 08:34:31;;;;;;;4.20;2.72;;;28.00;57.70;;;;;;10878669;32;20032;-72
2022/07/30 08:40:34;;;;;;;3.62;1.87;;;28.10;57.40;;;;;;10871854;32;20435;-71
2022/07/30 08:46:41;;;;;;;3.05;1.90;;;28.30;57.30;;;;;;10871394;32;20332;-72
2022/07/30 08:52:44;;;;;;;3.33;2.12;;;28.30;57.10;;;;;;10857106;32;20302;-72
2022/07/30 08:58:46;;;;;;;5.40;2.45;;;28.40;56.90;;;;;;10871037;32;20024;-72
2022/07/30 09:04:52;;;;;;;4.37;2.50;;;28.50;56.60;;;;;;10870837;32;20039;-72
2022/07/30 09:10:56;;;;;;;2.30;1.60;;;28.60;56.40;;;;;;10870623;32;20059;-72
2022/07/30 09:16:58;;;;;;;2.12;1.80;;;28.80;56.30;;;;;;10874816;32;20019;-72
2022/07/30 09:23:03;;;;;;;2.20;1.30;;;28.90;55.70;;;;;;10878924;32;20093;-71
2022/07/30 09:29:19;;;;;;;2.85;1.65;;;29.20;55.40;;;;;;10881996;32;20019;-72
2022/07/30 09:35:36;;;;;;;;;;;29.30;55.10;;;;;;10877286;32;20093;-72
2022/07/30 09:41:43;;;;;;;2.95;1.65;;;29.40;54.80;;;;;;10869188;32;20228;-72
2022/07/30 09:47:53;;;;;;;1.65;1.15;;;29.50;54.30;;;;;;10867839;32;20051;-72
2022/07/30 09:54:17;;;;;;;3.55;1.20;;;29.70;54.00;;;;;;10869206;32;20051;-71
2022/07/30 10:00:22;;;;;;;3.83;1.95;;;29.90;53.60;;;;;;10868626;32;20062;-71
2022/07/30 10:06:35;;;;;;;2.50;1.60;;;29.90;53.30;;;;;;10868685;32;20264;-72
2022/07/30 10:12:38;;;;;;;1.77;1.35;;;30.00;52.80;;;;;;10868082;32;20054;-69
2022/07/30 10:18:42;;;;;;;1.33;1.15;;;29.60;52.50;;;;;;10868300;32;20020;-70
2022/07/30 10:24:59;;;;;;;1.05;0.90;;;29.20;53.50;;;;;;10866354;32;20408;-70
2022/07/30 10:31:07;;;;;;;3.40;1.40;;;29.40;53.40;;;;;;10866977;32;20047;-69
2022/07/30 10:37:11;;;;;;;1.45;1.33;;;29.70;52.60;;;;;;10867222;32;20024;-70
2022/07/30 10:44:08;;;;;;;6.25;1.92;;;30.10;52.00;;;;;;10866608;32;20204;-71
2022/07/30 10:50:16;;;;;;;3.55;2.28;;;30.40;51.70;;;;;;10867437;32;20031;-72
2022/07/30 10:56:20;;;;;;;2.97;2.08;;;30.80;51.10;;;;;;10866528;32;20332;-72
2022/07/30 11:02:23;;;;;;;1.70;1.33;;;31.10;50.70;;;;;;10862823;32;20332;-71
2022/07/30 11:08:29;;;;;;;2.35;1.45;;;31.10;50.50;;;;;;10867050;32;20057;-72
2022/07/30 11:14:47;;;;;;;1.62;1.35;;;31.40;50.00;;;;;;10869416;32;20028;-72
2022/07/30 11:21:20;;;;;;;2.05;1.12;;;31.80;49.60;;;;;;10874261;32;20031;-72
2022/07/30 11:27:45;;;;;;;3.03;1.17;;;32.00;48.90;;;;;;10504051;32;12103838;-72
2022/07/30 11:34:17;;;;;;;1.42;0.82;;;32.20;48.30;;;;;;10795392;33;20032;-72
2022/07/30 11:40:19;;;;;;;1.80;1.33;;;32.60;47.30;;;;;;10796645;33;20078;-71
2022/07/30 11:46:22;;;;;;;3.53;1.87;;;32.90;46.40;;;;;;10796044;33;20032;-72
2022/07/30 11:52:24;;;;;;;1.40;1.08;;;33.00;45.50;;;;;;10795962;33;20051;-72
2022/07/30 11:58:26;;;;;;;2.80;1.17;;;33.00;45.50;;;;;;10868383;32;20085;-72
2022/07/30 12:04:29;;;;;;;3.75;0.75;;;33.30;44.80;;;;;;10873113;32;20028;-72
2022/07/30 12:10:31;;;;;;;1.83;1.33;;;33.40;44.00;;;;;;10872862;32;20042;-72
2022/07/30 12:16:33;;;;;;;2.60;1.40;;;33.60;43.70;;;;;;10872275;32;20396;-70
2022/07/30 12:22:35;;;;;;;3.22;1.60;;;33.70;43.60;;;;;;10868054;32;20032;-70
2022/07/30 12:28:50;;;;;;;3.12;1.92;;;33.90;43.40;;;;;;10883659;27;20403;-71
2022/07/30 12:35:03;;;;;;;2.65;1.80;;;33.80;43.60;;;;;;10909228;32;20028;-70
2022/07/30 12:41:05;;;;;;;2.10;1.48;;;33.20;44.30;;;;;;10906168;32;20042;-69
2022/07/30 12:47:39;;;;;;;1.92;1.45;;;33.30;44.30;;;;;;10908831;32;20408;-71
2022/07/30 12:53:41;;;;;;;5.45;2.78;;;33.50;44.30;;;;;;10904090;32;20053;-70
2022/07/30 12:59:43;;;;;;;3.28;2.22;;;33.70;44.50;;;;;;10908258;32;20344;-71
2022/07/30 13:05:48;;;;;;;1.75;1.25;;;33.30;44.80;;;;;;10903870;32;20019;-70
2022/07/30 13:11:57;;;;;;;3.27;1.60;;;33.50;44.50;;;;;;10904050;32;20011;-71
2022/07/30 13:18:01;;;;;;;3.50;1.62;;;33.30;44.60;;;;;;10907333;32;20036;-70
2022/07/30 13:24:23;;;;;;;4.07;2.20;;;33.10;45.10;;;;;;10902016;32;20024;-69
2022/07/30 13:30:26;;;;;;;3.10;2.30;;;33.40;45.10;;;;;;10890644;32;20027;-71
2022/07/30 13:36:28;;;;;;;2.33;1.40;;;33.30;44.80;;;;;;10886669;32;20031;-70
2022/07/30 13:42:31;;;;;;;3.28;1.77;;;33.40;44.40;;;;;;10869637;32;20057;-70
2022/07/30 13:48:34;;;;;;;2.30;1.45;;;33.00;44.70;;;;;;10867525;32;20347;-70
2022/07/30 13:54:37;;;;;;;4.25;1.98;;;32.80;45.10;;;;;;10864394;32;20089;-71
2022/07/30 14:00:46;;;;;;;1.83;1.25;;;32.80;44.90;;;;;;10865941;32;20054;-70
2022/07/30 14:06:49;;;;;;;1.80;1.00;;;32.90;43.90;;;;;;10854738;32;20376;-70
2022/07/30 14:12:53;;;;;;;0.65;0.50;;;33.20;43.00;;;;;;10867412;32;20306;-70
2022/07/30 14:18:56;;;;;;;1.50;0.93;;;33.30;42.40;;;;;;10867677;32;20027;-69
2022/07/30 14:25:08;;;;;;;1.62;0.90;;;33.30;42.00;;;;;;10846489;32;20074;-71
2022/07/30 14:31:10;;;;;;;1.42;1.05;;;33.10;41.90;;;;;;10864550;32;20077;-68
2022/07/30 14:37:12;;;;;;;14.63;1.30;;;33.30;41.60;;;;;;10865527;32;20023;-71
2022/07/30 14:43:16;;;;;;;1.70;0.70;;;33.30;42.10;;;;;;10864541;32;20081;-71
2022/07/30 14:49:25;;;;;;;0.70;0.50;;;33.30;40.80;;;;;;10862956;32;20050;-70
2022/07/30 14:55:28;;;;;;;1.00;0.60;;;33.30;40.20;;;;;;10867025;32;20372;-70
2022/07/30 15:01:31;;;;;;;2.42;0.80;;;33.40;40.20;;;;;;10864109;32;20024;-70
2022/07/30 15:07:33;;;;;;;0.50;0.35;;;33.50;40.40;;;;;;10866440;32;20416;-70
2022/07/30 15:13:35;;;;;;;1.67;0.82;;;33.30;40.20;;;;;;10851341;32;20027;-70
2022/07/30 15:19:37;;;;;;;0.47;0.47;;;33.40;40.40;;;;;;10866393;32;20392;-70
2022/07/30 15:25:40;;;;;;;0.80;0.40;;;33.30;40.10;;;;;;10865694;32;20070;-71
2022/07/30 15:31:43;;;;;;;0.73;0.40;;;33.00;40.50;;;;;;10865002;32;20027;-71
2022/07/30 15:37:45;;;;;;;1.08;0.68;;;32.70;41.00;;;;;;10865774;32;20066;-70
2022/07/30 15:43:47;;;;;;;1.02;0.60;;;32.60;41.20;;;;;;10852809;32;20071;-71
2022/07/30 15:49:49;;;;;;;0.65;0.40;;;32.40;41.10;;;;;;10862554;32;20384;-71
2022/07/30 15:55:51;;;;;;;0.75;0.75;;;32.30;41.10;;;;;;10865912;32;20049;-70
2022/07/30 16:01:53;;;;;;;1.92;0.32;;;32.20;41.40;;;;;;10870502;32;20348;-72
2022/07/30 16:07:55;;;;;;;0.82;0.60;;;32.30;41.60;;;;;;10872478;32;20016;-73
2022/07/30 16:13:57;;;;;;;0.95;0.57;;;32.20;41.80;;;;;;10867319;32;20078;-73
2022/07/30 16:19:59;;;;;;;2.40;0.90;;;32.20;42.10;;;;;;10870567;32;20035;-73
2022/07/30 16:26:01;;;;;;;1.48;1.05;;;32.20;42.30;;;;;;10859338;32;20423;-73
2022/07/30 16:32:03;;;;;;;2.03;1.00;;;32.10;42.70;;;;;;10871911;32;20196;-72
2022/07/30 16:38:05;;;;;;;1.75;1.15;;;32.10;43.10;;;;;;10871620;32;20431;-72
2022/07/30 16:44:20;;;;;;;3.35;1.20;;;32.00;44.30;;;;;;10871206;32;20089;-73
2022/07/30 16:50:23;;;;;;;1.17;0.70;;;32.20;44.60;;;;;;10870280;32;20028;-72
2022/07/30 16:56:25;;;;;;;2.95;0.85;;;32.30;44.30;;;;;;10870993;32;20028;-72
2022/07/30 17:02:28;;;;;;;1.42;0.65;;;32.30;44.60;;;;;;10870960;32;20391;-72
2022/07/30 17:08:30;;;;;;;4.47;1.08;;;32.20;44.40;;;;;;10870930;32;20023;-71
2022/07/30 17:14:32;;;;;;;1.25;0.70;;;32.10;44.50;;;;;;10869997;32;20047;-72
2022/07/30 17:20:51;;;;;;;1.60;0.95;;;32.20;44.20;;;;;;10870353;32;20062;-71
2022/07/30 17:26:53;;;;;;;1.52;0.75;;;32.30;43.80;;;;;;10869307;32;20040;-71
2022/07/30 17:33:07;;;;;;;1.08;0.77;;;32.30;44.30;;;;;;10856613;32;20059;-68
2022/07/30 17:39:09;;;;;;;0.45;0.40;;;32.40;44.00;;;;;;10856586;32;20023;-71
2022/07/30 17:45:12;;;;;;;0.45;0.40;;;32.30;44.20;;;;;;10869451;32;20058;-71
2022/07/30 17:51:14;;;;;;;1.60;0.88;;;32.80;43.40;;;;;;10869179;32;20032;-70
2022/07/30 17:57:19;;;;;;;1.55;0.88;;;33.80;42.00;;;;;;10869129;32;20019;-70
2022/07/30 18:03:21;;;;;;;0.70;0.45;;;34.40;41.10;;;;;;10868611;32;20031;-70
2022/07/30 18:09:23;;;;;;;1.12;0.68;;;34.90;40.70;;;;;;10865102;32;20032;-71
2022/07/30 18:15:26;;;;;;;3.53;0.60;;;34.80;40.90;;;;;;10855460;32;20396;-70
2022/07/30 18:21:28;;;;;;;2.55;0.95;;;34.20;41.40;;;;;;10868141;32;20043;-69
2022/07/30 18:27:30;;;;;;;3.58;1.00;;;33.10;42.90;;;;;;10867969;32;20035;-70
2022/07/30 18:33:32;;;;;;;0.62;0.52;;;32.30;44.10;;;;;;10867789;32;20032;-71
2022/07/30 18:39:34;;;;;;;2.28;1.02;;;31.90;45.00;;;;;;10867770;32;20042;-71
2022/07/30 18:45:37;;;;;;;1.50;0.52;;;31.60;45.30;;;;;;10867661;32;20430;-70
2022/07/30 18:51:39;;;;;;;7.47;0.88;;;31.30;45.90;;;;;;10867182;32;20043;-70
2022/07/30 18:57:41;;;;;;;2.70;0.60;;;31.10;46.40;;;;;;10867112;32;20023;-70
2022/07/30 19:03:44;;;;;;;3.75;1.10;;;30.90;47.10;;;;;;10866888;32;20012;-71
2022/07/30 19:09:47;;;;;;;1.12;0.60;;;30.90;47.10;;;;;;10866906;32;20074;-71
2022/07/30 19:15:49;;;;;;;1.05;0.80;;;30.90;47.00;;;;;;10863251;32;20016;-71
2022/07/30 19:21:51;;;;;;;1.25;0.80;;;30.80;47.10;;;;;;10866984;32;20058;-71
2022/07/30 19:27:53;;;;;;;0.50;0.40;;;30.80;47.10;;;;;;10863439;32;20023;-71
2022/07/30 19:33:55;;;;;;;3.00;1.45;;;30.70;47.50;;;;;;10867679;32;20050;-71
2022/07/30 19:39:58;;;;;;;1.37;0.80;;;30.60;48.10;;;;;;10873817;32;20060;-71
2022/07/30 19:45:59;;;;;;;0.95;0.62;;;30.40;48.20;;;;;;10873846;32;20023;-71
2022/07/30 19:52:01;;;;;;;0.98;0.55;;;30.40;48.70;;;;;;10873502;32;20027;-71
2022/07/30 19:58:06;;;;;;;2.35;0.95;;;30.30;49.10;;;;;;10873261;32;20027;-71
2022/07/30 20:04:10;;;;;;;1.35;0.80;;;30.10;49.70;;;;;;10895774;32;20443;-71
2022/07/30 20:10:12;;;;;;;1.65;1.00;;;30.00;50.10;;;;;;10897020;32;20426;-72
2022/07/30 20:16:15;;;;;;;1.27;0.60;;;30.00;50.00;;;;;;10910005;32;20046;-72
2022/07/30 20:22:17;;;;;;;1.10;0.60;;;29.90;50.20;;;;;;10909888;32;20023;-72
2022/07/30 20:28:19;;;;;;;0.77;0.57;;;29.80;50.30;;;;;;10914216;27;20058;-72
2022/07/30 20:34:22;;;;;;;0.57;0.40;;;29.80;50.40;;;;;;10909538;32;20019;-72
2022/07/30 20:40:25;;;;;;;5.97;1.05;;;29.70;50.50;;;;;;10889308;32;20050;-72
2022/07/30 20:46:27;;;;;;;1.20;0.60;;;29.70;50.50;;;;;;10870714;32;20011;-72
2022/07/30 20:52:29;;;;;;;1.48;1.00;;;29.70;50.70;;;;;;10871509;32;20043;-72
2022/07/30 20:58:31;;;;;;;1.73;1.00;;;29.60;50.90;;;;;;10871368;32;20078;-72
2022/07/30 21:04:34;;;;;;;1.12;0.62;;;29.60;51.00;;;;;;10857819;32;20065;-72
2022/07/30 21:10:36;;;;;;;1.17;0.65;;;29.50;51.10;;;;;;10870892;32;20384;-72
2022/07/30 21:16:39;;;;;;;2.45;0.75;;;29.40;51.30;;;;;;10870492;32;20043;-72
2022/07/30 21:22:42;;;;;;;0.37;0.37;;;29.40;51.60;;;;;;10870242;32;20050;-72
2022/07/30 21:28:44;;;;;;;0.82;0.77;;;29.30;52.10;;;;;;10856895;32;20050;-72
2022/07/30 21:34:46;;;;;;;2.40;0.70;;;29.20;52.10;;;;;;10870204;32;20020;-72
2022/07/30 21:40:48;;;;;;;1.20;0.55;;;29.10;52.20;;;;;;10856624;32;20391;-72
2022/07/30 21:46:51;;;;;;;9.32;1.12;;;29.00;52.20;;;;;;10869464;32;20024;-70
2022/07/30 21:52:53;;;;;;;1.48;0.70;;;29.00;52.20;;;;;;10869224;32;20023;-70
2022/07/30 21:58:55;;;;;;;0.75;0.50;;;28.90;52.30;;;;;;10868882;32;20016;-70
2022/07/30 22:04:58;;;;;;;0.43;0.43;;;28.80;52.50;;;;;;10868744;32;20027;-70
2022/07/30 22:11:00;;;;;;;0.93;0.73;;;28.70;52.70;;;;;;10864498;32;20020;-70
2022/07/30 22:17:02;;;;;;;0.68;0.60;;;28.80;52.70;;;;;;10868496;32;20024;-70
2022/07/30 22:23:04;;;;;;;0.70;0.50;;;28.80;52.80;;;;;;10868207;32;20297;-70
2022/07/30 22:29:06;;;;;;;1.37;0.65;;;28.60;52.90;;;;;;10854814;32;20042;-70
2022/07/30 22:35:09;;;;;;;1.52;0.82;;;28.50;53.10;;;;;;10867780;32;20055;-70
2022/07/30 22:41:12;;;;;;;3.92;0.80;;;28.50;53.00;;;;;;10865797;32;20047;-70
2022/07/30 22:47:23;;;;;;;1.23;0.73;;;28.50;53.10;;;;;;10867234;32;20054;-70
2022/07/30 22:53:25;;;;;;;0.57;0.43;;;28.30;53.30;;;;;;10867471;32;20336;-70
2022/07/30 22:59:28;;;;;;;2.15;0.85;;;28.30;53.50;;;;;;10863247;32;20050;-70
2022/07/30 23:05:30;;;;;;;1.65;0.68;;;28.20;53.60;;;;;;10867141;32;20336;-70
2022/07/30 23:11:32;;;;;;;2.05;1.00;;;28.00;53.90;;;;;;10866382;32;20042;-70
2022/07/30 23:17:33;;;;;;;1.08;0.65;;;28.00;54.10;;;;;;10866952;32;20028;-70
2022/07/30 23:23:36;;;;;;;0.98;0.60;;;28.00;54.10;;;;;;10866851;32;20042;-70
2022/07/30 23:29:38;;;;;;;1.85;0.85;;;27.80;54.30;;;;;;10866880;32;20028;-70
2022/07/30 23:35:40;;;;;;;0.77;0.40;;;27.60;54.40;;;;;;10864677;32;20320;-70
2022/07/30 23:41:50;;;;;;;1.85;1.17;;;27.40;54.60;;;;;;10866540;32;20400;-70
2022/07/30 23:47:52;;;;;;;4.10;1.08;;;27.30;54.70;;;;;;10863558;32;20046;-70
2022/07/30 23:53:54;;;;;;;1.90;1.15;;;27.30;54.90;;;;;;10866400;32;20043;-70
2022/07/30 23:59:56;;;;;;;1.15;0.82;;;27.30;54.90;;;;;;10866370;32;20034;-70
